KNKX/NKX METAR and TAF weather

Enter ICAO airport designator
Station Type Date Time Source
KNKX METAR 2019/08/21 01:55 UTC NOAA

KNKX 210155Z 31008KT 10SM CLR 24/18 A2987 RMK AO2 SLP110 T02390178


Station Type Date Time Source
KNKX Decoded METAR 2019/08/21 01:55 UTC NOAA

Station name not available
Aug 20, 2019 - 09:55 PM EDT / 2019.08.21 0155 UTC
Wind: from the NW (310 degrees) at 9 MPH (8 KT):0
Visibility: 10 mile(s):0
Sky conditions: clear
Temperature: 75.0 F (23.9 C)
Dew Point: 64.0 F (17.8 C)
Relative Humidity: 68%
Pressure (altimeter): 29.87 in. Hg (1011 hPa)
ob: KNKX 210155Z 31008KT 10SM CLR 24/18 A2987 RMK AO2 SLP110 T02390178
cycle: 2

Station Type Date Time Source
KNKX TAF 2019/08/20 21:06 UTC NOAA

TAF KNKX 2021/2121 30011KT 9999 SKC QNH2983INS
FM210230 VRB05KT 9999 SCT010 QNH2983INS
BECMG 2105/2107 VRB05KT 9999 OVC008 QNH2983INS
TEMPO 2109/2115 4800 BR OVC005
FM211630 VRB05KT 9999 FEW015 QNH2982INS
BECMG 2118/2120 29009KT 9999 SKC QNH2980INS T17/2112Z T28/2121Z

Example: see airport list